Time;durP1;ratioP1;P1;durP2;ratioP2;P2;SDS_P1;SDS_P2;PMS_P1;PMS_P2;Temp;Humidity;BMP_temperature;BMP_pressure;BME280_temperature;BME280_humidity;BME280_pressure;Samples;Min_cycle;Max_cycle;Signal;HPM_P1;HPM_P2
2022/08/17 00:01:03;;;;;;;3.00;2.10;;;;;;;;;;5040188;28;20103;-84
2022/08/17 00:03:32;;;;;;;7.57;2.50;;;;;;;;;;5040112;28;20025;-84
2022/08/17 00:06:10;;;;;;;2.72;2.10;;;;;;;;;;5022343;28;20033;-84
2022/08/17 00:08:40;;;;;;;3.30;2.00;;;;;;;;;;5040501;28;20115;-84
2022/08/17 00:11:10;;;;;;;3.72;2.30;;;;;;;;;;5022278;28;20064;-83
2022/08/17 00:13:40;;;;;;;4.65;2.30;;;;;;;;;;5039538;28;20040;-84
2022/08/17 00:16:10;;;;;;;4.82;2.20;;;;;;;;;;5040724;28;20119;-84
2022/08/17 00:18:37;;;;;;;3.10;2.25;;;;;;;;;;5039898;28;20116;-84
2022/08/17 00:21:06;;;;;;;2.85;2.22;;;;;;;;;;5039050;28;20115;-83
2022/08/17 00:23:32;;;;;;;2.63;2.03;;;;;;;;;;5040161;28;20025;-84
2022/08/17 00:25:57;;;;;;;5.60;2.10;;;;;;;;;;5038565;28;20052;-84
2022/08/17 00:28:24;;;;;;;2.35;2.00;;;;;;;;;;5039006;28;20429;-83
2022/08/17 00:30:50;;;;;;;2.50;2.00;;;;;;;;;;5038990;28;20048;-84
2022/08/17 00:33:18;;;;;;;5.30;2.50;;;;;;;;;;5038811;28;20037;-83
2022/08/17 00:35:45;;;;;;;3.33;2.50;;;;;;;;;;5040349;28;20037;-83
2022/08/17 00:38:11;;;;;;;3.45;2.30;;;;;;;;;;5039936;28;20509;-83
2022/08/17 00:40:57;;;;;;;4.68;2.30;;;;;;;;;;5040097;28;20052;-83
2022/08/17 00:43:35;;;;;;;4.07;2.20;;;;;;;;;;5038767;28;20528;-83
2022/08/17 00:46:09;;;;;;;4.82;2.42;;;;;;;;;;5038586;28;20041;-83
2022/08/17 00:48:35;;;;;;;3.25;2.30;;;;;;;;;;5039650;28;20072;-83
2022/08/17 00:51:06;;;;;;;3.28;2.60;;;;;;;;;;5039956;28;20045;-83
2022/08/17 00:53:37;;;;;;;3.95;2.38;;;;;;;;;;5038378;28;20490;-83
2022/08/17 00:56:07;;;;;;;4.72;2.60;;;;;;;;;;5037834;28;20056;-83
2022/08/17 00:58:33;;;;;;;5.63;2.42;;;;;;;;;;5039484;28;20025;-83
2022/08/17 01:01:00;;;;;;;4.10;2.60;;;;;;;;;;5038929;28;20041;-83
2022/08/17 01:03:27;;;;;;;6.90;2.60;;;;;;;;;;5038035;28;20096;-83
2022/08/17 01:05:56;;;;;;;3.63;2.50;;;;;;;;;;5039228;28;20468;-83
2022/08/17 01:08:25;;;;;;;5.13;2.60;;;;;;;;;;5038579;28;20041;-83
2022/08/17 01:10:54;;;;;;;3.92;2.28;;;;;;;;;;5039102;28;20038;-83
2022/08/17 01:13:22;;;;;;;4.20;2.53;;;;;;;;;;5039840;28;20534;-83
2022/08/17 01:15:54;;;;;;;3.17;2.40;;;;;;;;;;5039293;28;20041;-82
2022/08/17 01:18:20;;;;;;;3.45;2.40;;;;;;;;;;5038918;28;20037;-83
2022/08/17 01:20:52;;;;;;;4.22;2.42;;;;;;;;;;5021394;28;20037;-82
2022/08/17 01:23:23;;;;;;;5.57;2.50;;;;;;;;;;5039153;28;20059;-83
2022/08/17 01:25:51;;;;;;;6.57;2.53;;;;;;;;;;5039152;28;20123;-83
2022/08/17 01:28:17;;;;;;;4.80;2.70;;;;;;;;;;5039216;28;20025;-83
2022/08/17 01:30:43;;;;;;;4.63;2.40;;;;;;;;;;5039490;28;20037;-83
2022/08/17 01:33:10;;;;;;;4.10;2.33;;;;;;;;;;5038016;28;20053;-83
2022/08/17 01:35:37;;;;;;;3.65;2.40;;;;;;;;;;5038923;28;20482;-83
2022/08/17 01:38:03;;;;;;;3.65;2.53;;;;;;;;;;5039223;28;20091;-83
2022/08/17 01:40:37;;;;;;;3.47;2.30;;;;;;;;;;5039360;28;20041;-82
2022/08/17 01:43:18;;;;;;;2.97;2.15;;;;;;;;;;5038310;28;20037;-83
2022/08/17 01:45:47;;;;;;;4.15;2.28;;;;;;;;;;5038889;28;20088;-83
2022/08/17 01:48:13;;;;;;;4.43;2.33;;;;;;;;;;5039145;28;20045;-82
2022/08/17 01:50:42;;;;;;;3.03;2.35;;;;;;;;;;5039413;28;20038;-82
2022/08/17 01:53:25;;;;;;;4.60;2.22;;;;;;;;;;5038149;28;20061;-83
2022/08/17 01:56:01;;;;;;;2.85;2.15;;;;;;;;;;5039274;28;20069;-83
2022/08/17 01:58:27;;;;;;;3.50;2.38;;;;;;;;;;5039139;28;20033;-83
2022/08/17 02:00:54;;;;;;;3.10;2.28;;;;;;;;;;5037843;28;20048;-83
2022/08/17 02:03:21;;;;;;;3.33;2.30;;;;;;;;;;5039815;28;20036;-82
2022/08/17 02:05:48;;;;;;;3.40;2.33;;;;;;;;;;5037966;28;20044;-83
2022/08/17 02:08:18;;;;;;;2.50;2.20;;;;;;;;;;5039332;28;20402;-83
2022/08/17 02:10:45;;;;;;;4.55;2.60;;;;;;;;;;5038133;28;20037;-83
2022/08/17 02:13:11;;;;;;;3.28;2.53;;;;;;;;;;5038957;28;20502;-83
2022/08/17 02:15:37;;;;;;;3.47;2.40;;;;;;;;;;5038894;28;20037;-83
2022/08/17 02:18:04;;;;;;;4.43;2.50;;;;;;;;;;5039204;28;20037;-83
2022/08/17 02:20:30;;;;;;;3.60;2.50;;;;;;;;;;5037573;28;20046;-83
2022/08/17 02:23:01;;;;;;;4.05;2.58;;;;;;;;;;5039081;28;20034;-82
2022/08/17 02:25:28;;;;;;;4.30;2.08;;;;;;;;;;5038419;28;20033;-83
2022/08/17 02:27:54;;;;;;;2.92;2.30;;;;;;;;;;5037239;28;20037;-83
2022/08/17 02:30:19;;;;;;;2.95;2.20;;;;;;;;;;5038512;28;20034;-83
2022/08/17 02:32:45;;;;;;;3.83;2.55;;;;;;;;;;5038436;28;20116;-83
2022/08/17 02:35:12;;;;;;;4.47;2.70;;;;;;;;;;5037129;28;20041;-83
2022/08/17 02:37:38;;;;;;;3.63;2.55;;;;;;;;;;5037635;28;20033;-83
2022/08/17 02:40:05;;;;;;;3.17;2.50;;;;;;;;;;5040470;28;20040;-84
2022/08/17 02:42:37;;;;;;;3.92;2.60;;;;;;;;;;5037097;28;20567;-85
2022/08/17 02:45:15;;;;;;;5.45;2.75;;;;;;;;;;5036646;28;20095;-85
2022/08/17 02:47:42;;;;;;;4.32;2.50;;;;;;;;;;5036901;28;20037;-84
2022/08/17 02:50:11;;;;;;;2.75;2.28;;;;;;;;;;5020862;28;20376;-84
2022/08/17 02:52:39;;;;;;;4.95;2.33;;;;;;;;;;5021036;28;20033;-85
2022/08/17 02:55:17;;;;;;;4.10;2.30;;;;;;;;;;5038432;28;20057;-83
2022/08/17 02:57:43;;;;;;;3.85;2.40;;;;;;;;;;5042107;28;20060;-85
2022/08/17 03:00:12;;;;;;;6.10;2.22;;;;;;;;;;5041203;28;20112;-85
2022/08/17 03:02:39;;;;;;;5.00;2.38;;;;;;;;;;5040835;28;20033;-85
2022/08/17 03:05:11;;;;;;;3.05;2.35;;;;;;;;;;5041452;28;20053;-85
2022/08/17 03:07:38;;;;;;;3.70;2.20;;;;;;;;;;5041916;28;20090;-85
2022/08/17 03:10:05;;;;;;;3.38;2.20;;;;;;;;;;5040743;28;20037;-85
2022/08/17 03:12:32;;;;;;;4.28;2.42;;;;;;;;;;5041150;28;20034;-85
2022/08/17 03:15:02;;;;;;;2.95;2.33;;;;;;;;;;5041524;28;20107;-85
2022/08/17 03:17:28;;;;;;;4.13;2.30;;;;;;;;;;5042139;28;20057;-83
2022/08/17 03:19:53;;;;;;;4.03;2.50;;;;;;;;;;5041480;28;20041;-84
2022/08/17 03:22:19;;;;;;;3.13;2.22;;;;;;;;;;5041591;28;20033;-85
2022/08/17 03:24:44;;;;;;;4.18;2.45;;;;;;;;;;5041441;28;20029;-85
2022/08/17 03:27:10;;;;;;;4.57;2.47;;;;;;;;;;5041535;28;20064;-85
2022/08/17 03:29:35;;;;;;;4.20;2.35;;;;;;;;;;5041976;28;20047;-85
2022/08/17 03:32:10;;;;;;;2.63;2.20;;;;;;;;;;5041286;28;20124;-84
2022/08/17 03:34:35;;;;;;;3.13;2.20;;;;;;;;;;5041132;28;20034;-85
2022/08/17 03:37:01;;;;;;;5.60;2.53;;;;;;;;;;5041133;28;20084;-85
2022/08/17 03:39:26;;;;;;;3.55;2.50;;;;;;;;;;5041088;28;20486;-84
2022/08/17 03:41:52;;;;;;;3.35;2.40;;;;;;;;;;5041108;28;20151;-85
2022/08/17 03:44:17;;;;;;;4.55;2.50;;;;;;;;;;5041066;28;20033;-86
2022/08/17 03:57:38;;;;;;;2.80;2.40;;;;;;;;;;5040771;28;19984;-84
2022/08/17 04:00:05;;;;;;;3.70;2.50;;;;;;;;;;5041556;28;20057;-84
2022/08/17 04:02:37;;;;;;;5.60;2.58;;;;;;;;;;5041190;28;20030;-85
2022/08/17 04:05:03;;;;;;;3.28;2.47;;;;;;;;;;5040588;28;20041;-85
2022/08/17 04:07:30;;;;;;;4.45;2.40;;;;;;;;;;5041054;28;20040;-85
2022/08/17 04:09:56;;;;;;;2.53;2.15;;;;;;;;;;5039716;28;20029;-85
2022/08/17 04:12:23;;;;;;;4.45;2.65;;;;;;;;;;5022951;28;20056;-84
2022/08/17 04:14:48;;;;;;;3.53;2.30;;;;;;;;;;5039680;28;20037;-85
2022/08/17 04:17:14;;;;;;;3.00;2.40;;;;;;;;;;5040848;28;20068;-85
2022/08/17 04:19:39;;;;;;;5.05;2.50;;;;;;;;;;5040899;28;20124;-84
2022/08/17 04:22:05;;;;;;;2.90;2.35;;;;;;;;;;5040879;28;20022;-85
2022/08/17 04:24:32;;;;;;;4.88;2.50;;;;;;;;;;5040287;28;20037;-84
2022/08/17 04:26:57;;;;;;;3.90;2.60;;;;;;;;;;5039139;28;20052;-84
2022/08/17 04:29:24;;;;;;;4.32;2.53;;;;;;;;;;5039800;28;20033;-84
2022/08/17 04:31:51;;;;;;;3.03;2.20;;;;;;;;;;5040198;28;20053;-84
2022/08/17 04:34:18;;;;;;;5.07;2.30;;;;;;;;;;5039324;28;20453;-85
2022/08/17 04:36:43;;;;;;;4.28;2.58;;;;;;;;;;5040796;28;20367;-85
2022/08/17 04:39:10;;;;;;;3.00;2.28;;;;;;;;;;5040514;28;20485;-84
2022/08/17 04:44:19;;;;;;;3.47;2.53;;;;;;;;;;5039354;28;20076;-85
2022/08/17 04:46:45;;;;;;;2.95;2.47;;;;;;;;;;5038347;28;20041;-85
2022/08/17 04:49:10;;;;;;;3.97;2.47;;;;;;;;;;5040187;28;20472;-84
2022/08/17 04:51:42;;;;;;;3.08;2.50;;;;;;;;;;5040139;28;20108;-85
2022/08/17 04:54:18;;;;;;;4.25;2.40;;;;;;;;;;5039923;28;20037;-85
2022/08/17 04:56:44;;;;;;;4.03;2.30;;;;;;;;;;5039830;28;20037;-85
2022/08/17 04:59:14;;;;;;;4.60;2.47;;;;;;;;;;5039665;28;20060;-84
2022/08/17 05:01:40;;;;;;;3.35;2.42;;;;;;;;;;5039523;28;20049;-85
2022/08/17 05:04:09;;;;;;;3.95;2.20;;;;;;;;;;5039586;28;20046;-85
2022/08/17 05:06:35;;;;;;;3.95;2.30;;;;;;;;;;5039554;28;20041;-86
2022/08/17 05:09:02;;;;;;;5.50;2.50;;;;;;;;;;5039389;28;20113;-84
2022/08/17 05:11:28;;;;;;;5.88;2.35;;;;;;;;;;5037506;28;20045;-85
2022/08/17 05:13:55;;;;;;;3.55;2.30;;;;;;;;;;5039406;28;20033;-85
2022/08/17 05:16:22;;;;;;;4.00;2.50;;;;;;;;;;5039254;28;20059;-85
2022/08/17 05:18:48;;;;;;;5.35;1.98;;;;;;;;;;5037681;28;20120;-86
2022/08/17 05:21:15;;;;;;;3.47;2.50;;;;;;;;;;5039617;28;20068;-86
2022/08/17 05:23:41;;;;;;;3.40;2.40;;;;;;;;;;5038973;28;20500;-85
2022/08/17 05:26:07;;;;;;;3.67;2.20;;;;;;;;;;5039025;28;20045;-86
2022/08/17 05:28:33;;;;;;;3.05;2.30;;;;;;;;;;5039119;28;20053;-85
2022/08/17 05:31:02;;;;;;;2.88;2.20;;;;;;;;;;5037806;28;20071;-85
2022/08/17 05:33:33;;;;;;;6.00;2.38;;;;;;;;;;5037821;28;20041;-84
2022/08/17 05:36:00;;;;;;;3.97;2.40;;;;;;;;;;5038587;28;20045;-84
2022/08/17 05:38:28;;;;;;;5.43;2.53;;;;;;;;;;5021189;28;20116;-85
2022/08/17 05:40:54;;;;;;;4.45;2.38;;;;;;;;;;5038563;28;20452;-85
2022/08/17 05:43:30;;;;;;;4.53;2.33;;;;;;;;;;5038570;28;20387;-83
2022/08/17 05:46:05;;;;;;;2.97;2.28;;;;;;;;;;5039757;28;20037;-85
2022/08/17 05:48:42;;;;;;;5.35;2.70;;;;;;;;;;5038632;28;20101;-85
2022/08/17 05:51:38;;;;;;;3.20;2.40;;;;;;;;;;5041810;28;20428;-85
2022/08/17 05:54:22;;;;;;;3.95;2.20;;;;;;;;;;5042040;28;20034;-85
2022/08/17 05:56:50;;;;;;;4.47;2.55;;;;;;;;;;5038124;28;20033;-85
2022/08/17 05:59:25;;;;;;;3.28;2.40;;;;;;;;;;5040235;28;20033;-84
2022/08/17 06:02:08;;;;;;;4.07;2.50;;;;;;;;;;5040236;28;20033;-85
2022/08/17 06:04:34;;;;;;;4.93;2.60;;;;;;;;;;5038150;28;20100;-84
2022/08/17 06:07:30;;;;;;;5.10;2.20;;;;;;;;;;5038090;28;20107;-84
2022/08/17 06:10:17;;;;;;;5.68;2.60;;;;;;;;;;5037912;28;20089;-84
2022/08/17 06:13:24;;;;;;;5.57;2.50;;;;;;;;;;5020600;28;20037;-86
2022/08/17 06:15:59;;;;;;;3.15;2.20;;;;;;;;;;5037635;28;20124;-87
2022/08/17 06:18:30;;;;;;;3.20;2.40;;;;;;;;;;5038433;28;20033;-87
2022/08/17 06:21:00;;;;;;;4.97;2.50;;;;;;;;;;5037038;28;20034;-85
2022/08/17 06:23:33;;;;;;;5.57;2.40;;;;;;;;;;5036164;28;20128;-87
2022/08/17 06:26:02;;;;;;;;;;;;;;;;;;5038321;28;20064;-86
2022/08/17 06:28:52;;;;;;;4.80;2.45;;;;;;;;;;5038005;28;20277;-87
2022/08/17 06:31:38;;;;;;;3.90;2.38;;;;;;;;;;5040007;28;20033;-87
2022/08/17 06:34:09;;;;;;;3.65;2.30;;;;;;;;;;5042642;28;20456;-88
2022/08/17 06:37:01;;;;;;;7.95;2.50;;;;;;;;;;5042895;28;20064;-85
2022/08/17 06:39:38;;;;;;;4.53;2.50;;;;;;;;;;5041577;28;20037;-87
2022/08/17 06:42:24;;;;;;;2.67;2.30;;;;;;;;;;5023960;28;20034;-87
2022/08/17 06:44:53;;;;;;;7.20;2.70;;;;;;;;;;5041617;28;20089;-87
2022/08/17 06:47:33;;;;;;;3.72;2.45;;;;;;;;;;5040875;28;20116;-87
2022/08/17 06:50:01;;;;;;;3.42;2.47;;;;;;;;;;5042363;28;20044;-87
2022/08/17 06:52:33;;;;;;;2.60;2.30;;;;;;;;;;5042574;28;20049;-86
2022/08/17 06:55:13;;;;;;;4.93;2.20;;;;;;;;;;5041338;28;20033;-86
2022/08/17 06:57:46;;;;;;;3.05;2.30;;;;;;;;;;5042163;28;20160;-86
2022/08/17 07:00:25;;;;;;;4.22;2.28;;;;;;;;;;5040964;28;20049;-86
2022/08/17 07:03:01;;;;;;;5.03;2.35;;;;;;;;;;5040546;28;20048;-87
2022/08/17 07:05:51;;;;;;;3.85;2.30;;;;;;;;;;5041357;28;20037;-87
2022/08/17 07:08:17;;;;;;;7.05;2.60;;;;;;;;;;5040327;28;20033;-86
2022/08/17 07:10:51;;;;;;;5.20;2.53;;;;;;;;;;5038889;28;20056;-88
2022/08/17 07:13:32;;;;;;;7.40;2.30;;;;;;;;;;5040127;28;20504;-86
2022/08/17 07:16:19;;;;;;;3.25;2.40;;;;;;;;;;5041180;28;20038;-85
2022/08/17 07:18:46;;;;;;;6.03;2.40;;;;;;;;;;5040881;28;20044;-86
2022/08/17 07:21:20;;;;;;;4.75;2.30;;;;;;;;;;5039836;28;20506;-86
2022/08/17 07:24:05;;;;;;;3.63;2.20;;;;;;;;;;5040293;28;20033;-86
2022/08/17 07:26:31;;;;;;;4.05;2.47;;;;;;;;;;5039076;28;20030;-86
2022/08/17 07:28:59;;;;;;;4.85;2.17;;;;;;;;;;5040475;28;20081;-86
2022/08/17 07:31:29;;;;;;;4.68;2.45;;;;;;;;;;5040357;28;20048;-86
2022/08/17 07:34:09;;;;;;;2.83;2.20;;;;;;;;;;5040990;28;20033;-86
2022/08/17 07:36:35;;;;;;;4.20;2.30;;;;;;;;;;5039975;28;20053;-86
2022/08/17 07:39:02;;;;;;;2.83;2.20;;;;;;;;;;5040687;28;20064;-85
2022/08/17 07:41:32;;;;;;;4.03;2.30;;;;;;;;;;5040171;28;20029;-86
2022/08/17 07:43:58;;;;;;;2.95;2.25;;;;;;;;;;5040130;28;20450;-86
2022/08/17 07:49:35;;;;;;;3.90;2.10;;;;;;;;;;5040008;28;20140;-86
2022/08/17 07:52:29;;;;;;;2.83;2.30;;;;;;;;;;5040310;28;20091;-87
2022/08/17 07:54:55;;;;;;;5.63;2.20;;;;;;;;;;5022336;28;20037;-85
2022/08/17 07:57:22;;;;;;;4.20;2.10;;;;;;;;;;5039664;28;20091;-87
2022/08/17 08:00:00;;;;;;;4.63;2.35;;;;;;;;;;5039464;28;20048;-87
2022/08/17 08:02:37;;;;;;;4.80;2.38;;;;;;;;;;5039882;28;20406;-86
2022/08/17 08:05:07;;;;;;;4.13;2.38;;;;;;;;;;5038790;28;20041;-87
2022/08/17 08:07:54;;;;;;;3.47;2.50;;;;;;;;;;5039907;28;20097;-84
2022/08/17 08:10:29;;;;;;;3.50;2.33;;;;;;;;;;5039943;28;20033;-85
2022/08/17 08:13:26;;;;;;;3.03;2.10;;;;;;;;;;5040605;28;20041;-86
2022/08/17 08:15:55;;;;;;;2.92;2.20;;;;;;;;;;5039099;28;20053;-86
2022/08/17 08:18:36;;;;;;;3.15;2.10;;;;;;;;;;5040537;28;20033;-87
2022/08/17 08:21:11;;;;;;;4.25;2.30;;;;;;;;;;5041136;28;20187;-87
2022/08/17 08:24:02;;;;;;;2.97;2.10;;;;;;;;;;5040665;28;20056;-86
2022/08/17 08:26:47;;;;;;;3.08;2.20;;;;;;;;;;5040190;28;20087;-86
2022/08/17 08:29:42;;;;;;;5.10;2.45;;;;;;;;;;5039958;28;20033;-86
2022/08/17 08:32:19;;;;;;;6.05;2.15;;;;;;;;;;5039651;28;20032;-84
2022/08/17 08:35:05;;;;;;;2.83;2.17;;;;;;;;;;5037369;28;20041;-87
2022/08/17 08:37:42;;;;;;;5.55;2.30;;;;;;;;;;5039626;28;20059;-85
2022/08/17 08:40:32;;;;;;;3.50;2.00;;;;;;;;;;5039198;28;20547;-86
2022/08/17 08:43:39;;;;;;;4.43;2.30;;;;;;;;;;5039838;28;20041;-86
2022/08/17 08:46:18;;;;;;;3.50;2.38;;;;;;;;;;5047107;28;20100;-84
2022/08/17 08:49:15;;;;;;;3.33;2.20;;;;;;;;;;5049295;28;20044;-85
2022/08/17 08:51:59;;;;;;;3.20;2.40;;;;;;;;;;5049541;28;20026;-84
2022/08/17 08:54:40;;;;;;;3.42;2.20;;;;;;;;;;5048155;28;20048;-83
2022/08/17 08:57:17;;;;;;;4.13;2.63;;;;;;;;;;5049651;28;20048;-84
2022/08/17 09:00:21;;;;;;;5.47;2.42;;;;;;;;;;5048755;28;20482;-85
2022/08/17 09:03:16;;;;;;;3.35;2.20;;;;;;;;;;5033091;28;20053;-84
2022/08/17 09:06:20;;;;;;;4.47;2.33;;;;;;;;;;5047300;28;20049;-84
2022/08/17 09:09:08;;;;;;;2.90;2.30;;;;;;;;;;5051408;28;20047;-84
2022/08/17 09:12:12;;;;;;;3.35;2.13;;;;;;;;;;5051456;28;20113;-85
2022/08/17 09:15:00;;;;;;;6.53;2.42;;;;;;;;;;5050023;28;20045;-84
2022/08/17 09:17:50;;;;;;;3.05;2.42;;;;;;;;;;5049990;28;20037;-84
2022/08/17 09:20:23;;;;;;;2.65;2.30;;;;;;;;;;5041364;28;20033;-85
2022/08/17 09:22:55;;;;;;;4.47;2.33;;;;;;;;;;5051423;28;20033;-84
2022/08/17 09:25:27;;;;;;;6.73;2.50;;;;;;;;;;5049710;28;20037;-84
2022/08/17 09:27:52;;;;;;;4.25;2.30;;;;;;;;;;5050232;28;20269;-84
2022/08/17 09:30:18;;;;;;;3.35;2.35;;;;;;;;;;5050972;28;20616;-84
2022/08/17 09:32:48;;;;;;;4.43;2.35;;;;;;;;;;5050920;28;20033;-84
2022/08/17 09:35:21;;;;;;;4.55;2.35;;;;;;;;;;5052477;28;20057;-84
2022/08/17 09:38:02;;;;;;;;;;;;;;;;;;5051250;28;20056;-82
2022/08/17 09:40:43;;;;;;;3.90;2.60;;;;;;;;;;5051008;28;19913;-84
2022/08/17 09:43:26;;;;;;;5.05;2.95;;;;;;;;;;5050937;28;20120;-84
2022/08/17 09:45:56;;;;;;;3.42;2.53;;;;;;;;;;5050403;28;20104;-83
2022/08/17 09:48:42;;;;;;;4.72;2.70;;;;;;;;;;5050663;28;20048;-84
2022/08/17 09:51:17;;;;;;;4.18;2.97;;;;;;;;;;5049533;28;20037;-84
2022/08/17 09:53:42;;;;;;;4.57;2.80;;;;;;;;;;5050791;28;20056;-83
2022/08/17 09:56:08;;;;;;;5.32;3.20;;;;;;;;;;5050016;28;20041;-84
2022/08/17 09:58:59;;;;;;;5.18;2.80;;;;;;;;;;5051410;28;20027;-86
2022/08/17 10:01:43;;;;;;;4.53;2.85;;;;;;;;;;5049911;28;20038;-87
2022/08/17 10:04:50;;;;;;;3.80;2.80;;;;;;;;;;5049970;28;20033;-84
2022/08/17 10:07:40;;;;;;;5.18;2.78;;;;;;;;;;5056173;28;20054;-85
2022/08/17 10:10:19;;;;;;;4.55;3.00;;;;;;;;;;5055109;28;20041;-85
2022/08/17 10:12:57;;;;;;;5.00;2.92;;;;;;;;;;5056121;28;20046;-85
2022/08/17 10:15:54;;;;;;;3.28;2.50;;;;;;;;;;5057975;28;20089;-85
2022/08/17 10:18:28;;;;;;;7.30;2.80;;;;;;;;;;5040203;28;20045;-85
2022/08/17 10:26:36;;;;;;;4.10;2.63;;;;;;;;;;5056560;28;20033;-85
2022/08/17 10:29:26;;;;;;;6.28;2.97;;;;;;;;;;5057068;28;20040;-86
2022/08/17 10:32:05;;;;;;;6.80;2.60;;;;;;;;;;5057328;28;20037;-86
2022/08/17 10:34:44;;;;;;;4.72;2.40;;;;;;;;;;5053782;28;20065;-85
2022/08/17 10:37:41;;;;;;;3.50;2.38;;;;;;;;;;5052377;28;20041;-85
2022/08/17 10:40:29;;;;;;;4.05;2.40;;;;;;;;;;5052772;28;20061;-85
2022/08/17 10:43:14;;;;;;;3.95;2.80;;;;;;;;;;5052047;28;20041;-86
2022/08/17 10:45:48;;;;;;;4.53;2.90;;;;;;;;;;5041246;28;20033;-85
2022/08/17 10:48:36;;;;;;;4.20;2.83;;;;;;;;;;5041932;28;20113;-85
2022/08/17 10:51:07;;;;;;;7.00;2.42;;;;;;;;;;5041518;28;20042;-85
2022/08/17 10:53:39;;;;;;;4.68;2.80;;;;;;;;;;5038528;28;20038;-85
2022/08/17 10:56:10;;;;;;;5.20;2.78;;;;;;;;;;5042042;28;20037;-85
2022/08/17 10:58:50;;;;;;;4.03;2.97;;;;;;;;;;5049237;28;20092;-85
2022/08/17 11:01:16;;;;;;;4.20;2.90;;;;;;;;;;5052712;28;20044;-85
2022/08/17 11:03:55;;;;;;;4.80;2.90;;;;;;;;;;5051630;28;20022;-85
2022/08/17 11:06:47;;;;;;;6.00;2.78;;;;;;;;;;5052689;28;20040;-85
2022/08/17 11:09:34;;;;;;;5.50;2.75;;;;;;;;;;5052400;28;20080;-87
2022/08/17 11:12:25;;;;;;;3.78;2.60;;;;;;;;;;5053664;28;20115;-84
2022/08/17 11:15:09;;;;;;;3.35;2.42;;;;;;;;;;5053728;28;20041;-85
2022/08/17 11:17:49;;;;;;;5.35;2.78;;;;;;;;;;5052502;28;20061;-85
2022/08/17 11:20:30;;;;;;;4.45;2.47;;;;;;;;;;5052773;28;20067;-85
2022/08/17 11:23:08;;;;;;;5.78;2.53;;;;;;;;;;5053282;28;20030;-85
2022/08/17 11:25:39;;;;;;;4.30;2.67;;;;;;;;;;5051862;28;20060;-85
2022/08/17 11:28:14;;;;;;;2.97;2.30;;;;;;;;;;5053290;28;20089;-84
2022/08/17 11:30:47;;;;;;;4.43;2.40;;;;;;;;;;5053827;28;20033;-85
2022/08/17 11:33:43;;;;;;;10.90;2.55;;;;;;;;;;5035613;28;20033;-83
2022/08/17 11:36:46;;;;;;;2.92;2.30;;;;;;;;;;5049494;28;20045;-85
2022/08/17 11:39:30;;;;;;;3.92;2.40;;;;;;;;;;5053560;28;20037;-85
2022/08/17 11:42:18;;;;;;;3.97;2.45;;;;;;;;;;5052069;28;20037;-84
2022/08/17 11:44:52;;;;;;;5.95;2.70;;;;;;;;;;5053172;28;20045;-86
2022/08/17 11:53:36;;;;;;;6.97;2.80;;;;;;;;;;5052463;28;20037;-85
2022/08/17 11:56:05;;;;;;;3.33;2.40;;;;;;;;;;5052986;28;20033;-85
2022/08/17 11:58:36;;;;;;;4.63;2.40;;;;;;;;;;5052659;28;20060;-85
2022/08/17 12:01:21;;;;;;;3.17;2.50;;;;;;;;;;5052624;28;20045;-85
2022/08/17 12:03:57;;;;;;;6.43;2.75;;;;;;;;;;5051077;28;20054;-84
2022/08/17 12:06:29;;;;;;;4.82;2.47;;;;;;;;;;5050555;28;20101;-86
2022/08/17 12:08:59;;;;;;;5.63;2.47;;;;;;;;;;5052582;28;20045;-85
2022/08/17 12:11:47;;;;;;;3.85;2.55;;;;;;;;;;5051078;28;20034;-85
2022/08/17 12:14:21;;;;;;;4.93;2.65;;;;;;;;;;5052462;28;20056;-85
2022/08/17 12:16:58;;;;;;;2.90;2.53;;;;;;;;;;5051775;28;20049;-85
2022/08/17 12:19:26;;;;;;;3.53;2.50;;;;;;;;;;5050801;28;20029;-86
2022/08/17 12:22:20;;;;;;;5.45;2.42;;;;;;;;;;5051721;28;20029;-85
2022/08/17 12:24:58;;;;;;;4.00;2.70;;;;;;;;;;5051279;28;20052;-84
2022/08/17 12:27:32;;;;;;;4.60;2.42;;;;;;;;;;5052436;28;20101;-84
2022/08/17 12:30:01;;;;;;;5.82;2.50;;;;;;;;;;5050576;28;20097;-87
2022/08/17 12:32:32;;;;;;;6.00;2.67;;;;;;;;;;5052142;28;20033;-86
2022/08/17 12:34:58;;;;;;;4.05;2.30;;;;;;;;;;5051906;28;20057;-86
2022/08/17 12:37:30;;;;;;;7.50;2.45;;;;;;;;;;5050511;28;20064;-87
2022/08/17 12:39:58;;;;;;;5.95;2.55;;;;;;;;;;5051073;28;20037;-85
2022/08/17 12:42:36;;;;;;;3.67;2.30;;;;;;;;;;5050566;28;20043;-84
2022/08/17 12:45:19;;;;;;;5.63;2.25;;;;;;;;;;5050996;28;20033;-84
2022/08/17 12:47:44;;;;;;;4.20;2.30;;;;;;;;;;5052246;28;20033;-84
2022/08/17 12:50:12;;;;;;;3.13;2.50;;;;;;;;;;5052404;28;20033;-84
2022/08/17 12:52:41;;;;;;;5.70;2.50;;;;;;;;;;5052719;28;20109;-84
2022/08/17 12:55:21;;;;;;;4.35;2.40;;;;;;;;;;5052000;28;20057;-84
2022/08/17 12:57:50;;;;;;;3.17;2.40;;;;;;;;;;5052281;28;20048;-84
2022/08/17 13:00:18;;;;;;;3.10;2.10;;;;;;;;;;5052100;28;20048;-84
2022/08/17 13:02:48;;;;;;;4.78;2.60;;;;;;;;;;5051393;28;20029;-84
2022/08/17 13:05:36;;;;;;;4.93;2.40;;;;;;;;;;5050495;28;20093;-84
2022/08/17 13:08:13;;;;;;;3.90;2.20;;;;;;;;;;5051808;28;20033;-84
2022/08/17 13:10:39;;;;;;;4.00;2.58;;;;;;;;;;5051856;28;20022;-84
2022/08/17 13:13:38;;;;;;;3.58;2.50;;;;;;;;;;5051820;28;20064;-84
2022/08/17 13:16:27;;;;;;;5.22;2.55;;;;;;;;;;5050066;28;20038;-85
2022/08/17 13:19:04;;;;;;;6.07;2.80;;;;;;;;;;5051578;28;20108;-85
2022/08/17 13:21:32;;;;;;;3.47;2.30;;;;;;;;;;5034329;28;20037;-83
2022/08/17 13:24:01;;;;;;;3.03;2.40;;;;;;;;;;5051608;28;20034;-84
2022/08/17 13:26:31;;;;;;;5.35;2.70;;;;;;;;;;5052456;28;20037;-84
2022/08/17 13:28:57;;;;;;;4.68;2.50;;;;;;;;;;5051877;28;20088;-85
2022/08/17 13:31:29;;;;;;;4.40;2.60;;;;;;;;;;5051852;28;20096;-85
2022/08/17 13:34:34;;;;;;;3.00;2.40;;;;;;;;;;5050528;28;20043;-85
2022/08/17 13:37:25;;;;;;;4.63;2.42;;;;;;;;;;5051348;28;20037;-85
2022/08/17 13:39:57;;;;;;;6.30;2.53;;;;;;;;;;5049628;28;20022;-84
2022/08/17 13:42:41;;;;;;;5.85;2.60;;;;;;;;;;5050663;28;20037;-84
2022/08/17 13:45:28;;;;;;;3.55;2.50;;;;;;;;;;5051432;28;20049;-84
2022/08/17 13:48:07;;;;;;;3.88;2.60;;;;;;;;;;5051037;28;20037;-84
2022/08/17 13:50:34;;;;;;;6.00;2.45;;;;;;;;;;5051052;28;20041;-84
2022/08/17 13:53:00;;;;;;;4.10;2.83;;;;;;;;;;5050853;28;20112;-84
2022/08/17 13:55:27;;;;;;;2.95;2.30;;;;;;;;;;5051016;28;20029;-84
2022/08/17 13:57:55;;;;;;;3.70;2.60;;;;;;;;;;5050549;28;20093;-84
2022/08/17 14:00:31;;;;;;;4.05;2.55;;;;;;;;;;5051210;28;20022;-84
2022/08/17 14:02:58;;;;;;;2.53;2.20;;;;;;;;;;5052054;28;20048;-84
2022/08/17 14:05:24;;;;;;;3.80;2.50;;;;;;;;;;5051698;28;20053;-84
2022/08/17 14:08:00;;;;;;;5.80;2.40;;;;;;;;;;5050668;28;20097;-84
2022/08/17 14:10:27;;;;;;;7.00;2.50;;;;;;;;;;5050699;28;20063;-84
2022/08/17 14:12:52;;;;;;;4.85;2.40;;;;;;;;;;5051325;28;20044;-84
2022/08/17 14:15:23;;;;;;;4.15;2.55;;;;;;;;;;5051401;28;20041;-84
2022/08/17 14:17:49;;;;;;;6.25;2.90;;;;;;;;;;5034001;28;20060;-84
2022/08/17 14:20:18;;;;;;;3.17;2.55;;;;;;;;;;5050600;28;20037;-84
2022/08/17 14:22:52;;;;;;;4.18;2.83;;;;;;;;;;5051667;28;20038;-84
2022/08/17 14:25:20;;;;;;;3.53;2.40;;;;;;;;;;5051617;28;20097;-84
2022/08/17 14:27:48;;;;;;;6.30;2.70;;;;;;;;;;5051581;28;20037;-84
2022/08/17 14:30:14;;;;;;;6.35;3.28;;;;;;;;;;5051214;28;20087;-84
2022/08/17 14:32:40;;;;;;;2.95;2.65;;;;;;;;;;5050090;28;20049;-83
2022/08/17 14:35:08;;;;;;;6.05;2.50;;;;;;;;;;5050803;28;20045;-84
2022/08/17 14:37:33;;;;;;;3.17;2.42;;;;;;;;;;5051185;28;20041;-84
2022/08/17 14:40:03;;;;;;;4.88;2.40;;;;;;;;;;5050505;28;20048;-84
2022/08/17 14:42:31;;;;;;;5.28;2.47;;;;;;;;;;5050755;28;20029;-84
2022/08/17 14:44:59;;;;;;;3.75;2.40;;;;;;;;;;5050698;28;20045;-84
2022/08/17 14:47:25;;;;;;;4.57;2.40;;;;;;;;;;5051501;28;20041;-83
2022/08/17 14:49:51;;;;;;;4.20;2.40;;;;;;;;;;5050066;28;20107;-84
2022/08/17 14:52:20;;;;;;;6.22;2.60;;;;;;;;;;5052179;28;20056;-84
2022/08/17 14:54:50;;;;;;;4.13;2.58;;;;;;;;;;5053713;28;20037;-84
2022/08/17 14:57:20;;;;;;;3.92;2.50;;;;;;;;;;5054450;28;20051;-84
2022/08/17 14:59:47;;;;;;;4.30;2.42;;;;;;;;;;5053696;28;20064;-84
2022/08/17 15:02:14;;;;;;;3.63;2.60;;;;;;;;;;5054908;28;20029;-84
2022/08/17 15:04:39;;;;;;;4.95;2.53;;;;;;;;;;5054448;28;20045;-84
2022/08/17 15:07:05;;;;;;;3.78;2.50;;;;;;;;;;5056009;28;20022;-83
2022/08/17 15:09:32;;;;;;;3.33;2.50;;;;;;;;;;5054811;28;20044;-84
2022/08/17 15:12:01;;;;;;;4.22;2.55;;;;;;;;;;5054515;28;20041;-85
2022/08/17 15:14:27;;;;;;;6.05;2.45;;;;;;;;;;5054789;28;20045;-86
2022/08/17 15:16:52;;;;;;;6.07;2.60;;;;;;;;;;5055756;28;20037;-83
2022/08/17 15:19:18;;;;;;;5.38;2.53;;;;;;;;;;5054912;28;20029;-84
2022/08/17 15:21:45;;;;;;;6.20;2.50;;;;;;;;;;5054905;28;20029;-84
2022/08/17 15:24:12;;;;;;;4.82;2.50;;;;;;;;;;5053851;28;20044;-85
2022/08/17 15:26:38;;;;;;;4.20;2.45;;;;;;;;;;5054579;28;20108;-83
2022/08/17 15:29:04;;;;;;;7.32;2.65;;;;;;;;;;5052159;28;20037;-87
2022/08/17 15:31:30;;;;;;;3.53;2.58;;;;;;;;;;5049825;28;20477;-85
2022/08/17 15:33:56;;;;;;;3.75;2.40;;;;;;;;;;5036023;28;20057;-83
2022/08/17 15:36:21;;;;;;;5.13;2.30;;;;;;;;;;5052852;28;20044;-85
2022/08/17 15:38:47;;;;;;;3.67;2.30;;;;;;;;;;5052894;28;20037;-85
2022/08/17 15:41:16;;;;;;;7.28;2.80;;;;;;;;;;5052519;28;20044;-84
2022/08/17 15:43:47;;;;;;;4.43;2.85;;;;;;;;;;5051892;28;20049;-85
2022/08/17 15:46:20;;;;;;;3.83;2.30;;;;;;;;;;5052462;28;20060;-84
2022/08/17 15:48:50;;;;;;;2.97;2.40;;;;;;;;;;5052109;28;20478;-87